sensor_id;sensor_type;location;lat;lon;timestamp;temperature;humidity
12771;DHT22;6449;47.666;9.160;2023-06-14T00:00:36;16.80;98.80
12771;DHT22;6449;47.666;9.160;2023-06-14T00:05:32;16.60;99.30
12771;DHT22;6449;47.666;9.160;2023-06-14T00:10:30;16.30;99.90
12771;DHT22;6449;47.666;9.160;2023-06-14T00:15:25;16.50;99.90
12771;DHT22;6449;47.666;9.160;2023-06-14T00:20:20;16.20;99.90
12771;DHT22;6449;47.666;9.160;2023-06-14T00:25:14;16.20;99.90
12771;DHT22;6449;47.666;9.160;2023-06-14T00:30:19;16.00;99.90
12771;DHT22;6449;47.666;9.160;2023-06-14T00:35:13;16.10;99.90
12771;DHT22;6449;47.666;9.160;2023-06-14T00:40:09;16.40;99.90
12771;DHT22;6449;47.666;9.160;2023-06-14T00:45:03;16.60;99.90
12771;DHT22;6449;47.666;9.160;2023-06-14T00:49:57;16.20;99.90
12771;DHT22;6449;47.666;9.160;2023-06-14T00:54:53;15.90;99.90
12771;DHT22;6449;47.666;9.160;2023-06-14T00:59:48;15.30;99.90
12771;DHT22;6449;47.666;9.160;2023-06-14T01:04:43;15.30;99.90
12771;DHT22;6449;47.666;9.160;2023-06-14T01:09:48;15.10;99.90
12771;DHT22;6449;47.666;9.160;2023-06-14T01:14:59;15.30;99.90
12771;DHT22;6449;47.666;9.160;2023-06-14T01:19:54;15.20;99.90
12771;DHT22;6449;47.666;9.160;2023-06-14T01:24:51;15.00;99.90
12771;DHT22;6449;47.666;9.160;2023-06-14T01:29:47;15.00;99.90
12771;DHT22;6449;47.666;9.160;2023-06-14T01:34:40;14.90;99.90
12771;DHT22;6449;47.666;9.160;2023-06-14T01:39:34;14.90;99.90
12771;DHT22;6449;47.666;9.160;2023-06-14T01:44:30;14.70;99.90
12771;DHT22;6449;47.666;9.160;2023-06-14T01:49:25;14.60;99.90
12771;DHT22;6449;47.666;9.160;2023-06-14T01:54:19;14.60;99.90
12771;DHT22;6449;47.666;9.160;2023-06-14T01:59:13;14.60;99.90
12771;DHT22;6449;47.666;9.160;2023-06-14T02:04:09;14.80;99.90
12771;DHT22;6449;47.666;9.160;2023-06-14T02:09:02;14.70;99.90
12771;DHT22;6449;47.666;9.160;2023-06-14T02:13:56;14.40;99.90
12771;DHT22;6449;47.666;9.160;2023-06-14T02:18:52;14.20;99.90
12771;DHT22;6449;47.666;9.160;2023-06-14T02:23:46;14.30;99.90
12771;DHT22;6449;47.666;9.160;2023-06-14T02:28:40;14.40;99.90
12771;DHT22;6449;47.666;9.160;2023-06-14T02:33:33;14.30;99.90
12771;DHT22;6449;47.666;9.160;2023-06-14T02:38:27;14.60;99.90
12771;DHT22;6449;47.666;9.160;2023-06-14T02:43:21;14.50;99.90
12771;DHT22;6449;47.666;9.160;2023-06-14T02:48:15;14.20;99.90
12771;DHT22;6449;47.666;9.160;2023-06-14T02:53:08;14.30;99.90
12771;DHT22;6449;47.666;9.160;2023-06-14T02:58:02;14.10;99.90
12771;DHT22;6449;47.666;9.160;2023-06-14T03:02:57;14.10;99.90
12771;DHT22;6449;47.666;9.160;2023-06-14T03:07:53;13.80;99.90
12771;DHT22;6449;47.666;9.160;2023-06-14T03:12:47;13.80;99.90
12771;DHT22;6449;47.666;9.160;2023-06-14T03:17:40;14.00;99.90
12771;DHT22;6449;47.666;9.160;2023-06-14T03:22:39;14.10;99.90
12771;DHT22;6449;47.666;9.160;2023-06-14T03:27:32;14.40;99.90
12771;DHT22;6449;47.666;9.160;2023-06-14T03:32:27;14.70;99.90
12771;DHT22;6449;47.666;9.160;2023-06-14T03:37:20;14.90;99.90
12771;DHT22;6449;47.666;9.160;2023-06-14T03:42:15;14.20;99.90
12771;DHT22;6449;47.666;9.160;2023-06-14T03:47:08;14.00;99.90
12771;DHT22;6449;47.666;9.160;2023-06-14T03:52:02;14.10;99.90
12771;DHT22;6449;47.666;9.160;2023-06-14T03:56:55;14.00;99.90
12771;DHT22;6449;47.666;9.160;2023-06-14T04:01:50;13.90;99.90
12771;DHT22;6449;47.666;9.160;2023-06-14T04:06:45;13.80;99.90
12771;DHT22;6449;47.666;9.160;2023-06-14T04:11:40;13.80;99.90
12771;DHT22;6449;47.666;9.160;2023-06-14T04:16:33;13.90;99.90
12771;DHT22;6449;47.666;9.160;2023-06-14T04:21:28;14.00;99.90
12771;DHT22;6449;47.666;9.160;2023-06-14T04:26:22;14.10;99.90
12771;DHT22;6449;47.666;9.160;2023-06-14T04:31:22;14.30;99.90
12771;DHT22;6449;47.666;9.160;2023-06-14T04:36:16;14.30;99.90
12771;DHT22;6449;47.666;9.160;2023-06-14T04:41:12;14.30;99.90
12771;DHT22;6449;47.666;9.160;2023-06-14T04:46:05;14.60;99.90
12771;DHT22;6449;47.666;9.160;2023-06-14T04:51:02;15.10;99.90
12771;DHT22;6449;47.666;9.160;2023-06-14T04:55:55;15.30;99.90
12771;DHT22;6449;47.666;9.160;2023-06-14T05:00:50;15.70;99.90
12771;DHT22;6449;47.666;9.160;2023-06-14T05:05:45;16.10;99.90
12771;DHT22;6449;47.666;9.160;2023-06-14T05:10:38;16.30;99.90
12771;DHT22;6449;47.666;9.160;2023-06-14T05:15:31;16.50;99.90
12771;DHT22;6449;47.666;9.160;2023-06-14T05:20:27;16.70;99.90
12771;DHT22;6449;47.666;9.160;2023-06-14T05:25:20;17.00;99.90
12771;DHT22;6449;47.666;9.160;2023-06-14T05:30:14;17.00;99.90
12771;DHT22;6449;47.666;9.160;2023-06-14T05:35:08;17.00;99.90
12771;DHT22;6449;47.666;9.160;2023-06-14T05:40:05;17.20;99.90
12771;DHT22;6449;47.666;9.160;2023-06-14T05:45:00;17.40;99.90
12771;DHT22;6449;47.666;9.160;2023-06-14T05:49:54;17.50;99.90
12771;DHT22;6449;47.666;9.160;2023-06-14T05:54:48;17.60;99.90
12771;DHT22;6449;47.666;9.160;2023-06-14T05:59:43;17.60;99.90
12771;DHT22;6449;47.666;9.160;2023-06-14T06:04:36;17.40;99.90
12771;DHT22;6449;47.666;9.160;2023-06-14T06:09:30;17.40;99.90
12771;DHT22;6449;47.666;9.160;2023-06-14T06:14:23;17.20;99.90
12771;DHT22;6449;47.666;9.160;2023-06-14T06:19:18;17.00;99.90
12771;DHT22;6449;47.666;9.160;2023-06-14T06:24:11;17.10;99.90
12771;DHT22;6449;47.666;9.160;2023-06-14T06:29:05;17.00;99.90
12771;DHT22;6449;47.666;9.160;2023-06-14T06:33:58;17.00;99.90
12771;DHT22;6449;47.666;9.160;2023-06-14T06:38:53;17.10;99.90
12771;DHT22;6449;47.666;9.160;2023-06-14T06:43:46;17.30;99.90
12771;DHT22;6449;47.666;9.160;2023-06-14T06:48:39;17.30;99.90
12771;DHT22;6449;47.666;9.160;2023-06-14T06:53:33;17.50;99.90
12771;DHT22;6449;47.666;9.160;2023-06-14T06:58:37;17.90;99.90
12771;DHT22;6449;47.666;9.160;2023-06-14T07:03:30;17.90;98.90
12771;DHT22;6449;47.666;9.160;2023-06-14T07:08:24;18.20;99.90
12771;DHT22;6449;47.666;9.160;2023-06-14T07:13:17;18.60;99.90
12771;DHT22;6449;47.666;9.160;2023-06-14T07:18:12;18.80;99.00
12771;DHT22;6449;47.666;9.160;2023-06-14T07:23:07;19.10;99.90
12771;DHT22;6449;47.666;9.160;2023-06-14T07:28:00;19.30;98.10
12771;DHT22;6449;47.666;9.160;2023-06-14T07:32:55;19.40;98.50
12771;DHT22;6449;47.666;9.160;2023-06-14T07:37:50;19.60;98.80
12771;DHT22;6449;47.666;9.160;2023-06-14T07:42:43;19.90;99.60
12771;DHT22;6449;47.666;9.160;2023-06-14T07:47:36;20.10;97.20
12771;DHT22;6449;47.666;9.160;2023-06-14T07:52:30;20.20;98.80
12771;DHT22;6449;47.666;9.160;2023-06-14T07:57:25;20.40;98.50
12771;DHT22;6449;47.666;9.160;2023-06-14T08:02:18;20.50;96.60
12771;DHT22;6449;47.666;9.160;2023-06-14T08:07:11;21.00;97.20
12771;DHT22;6449;47.666;9.160;2023-06-14T08:12:06;21.00;96.00
12771;DHT22;6449;47.666;9.160;2023-06-14T08:17:03;21.30;96.30
12771;DHT22;6449;47.666;9.160;2023-06-14T08:21:57;21.50;94.20
12771;DHT22;6449;47.666;9.160;2023-06-14T08:26:50;21.70;94.40
12771;DHT22;6449;47.666;9.160;2023-06-14T08:31:44;22.10;94.00
12771;DHT22;6449;47.666;9.160;2023-06-14T08:36:38;22.20;95.70
12771;DHT22;6449;47.666;9.160;2023-06-14T08:41:33;22.40;92.60
12771;DHT22;6449;47.666;9.160;2023-06-14T08:46:27;22.80;92.60
12771;DHT22;6449;47.666;9.160;2023-06-14T08:51:25;23.00;91.10
12771;DHT22;6449;47.666;9.160;2023-06-14T08:56:27;23.10;92.00
12771;DHT22;6449;47.666;9.160;2023-06-14T09:01:23;23.20;91.40
12771;DHT22;6449;47.666;9.160;2023-06-14T09:06:17;23.30;92.30
12771;DHT22;6449;47.666;9.160;2023-06-14T09:11:11;23.60;92.80
12771;DHT22;6449;47.666;9.160;2023-06-14T09:16:07;23.80;91.40
12771;DHT22;6449;47.666;9.160;2023-06-14T09:21:02;23.90;92.00
12771;DHT22;6449;47.666;9.160;2023-06-14T09:25:55;24.20;91.60
12771;DHT22;6449;47.666;9.160;2023-06-14T09:30:48;24.20;92.30
12771;DHT22;6449;47.666;9.160;2023-06-14T09:35:45;24.50;90.90
12771;DHT22;6449;47.666;9.160;2023-06-14T09:40:38;24.60;90.50
12771;DHT22;6449;47.666;9.160;2023-06-14T09:45:32;24.60;90.60
12771;DHT22;6449;47.666;9.160;2023-06-14T09:50:26;24.60;91.00
12771;DHT22;6449;47.666;9.160;2023-06-14T09:55:20;24.60;90.50
12771;DHT22;6449;47.666;9.160;2023-06-14T10:00:15;24.80;88.30
12771;DHT22;6449;47.666;9.160;2023-06-14T10:05:12;24.60;86.40
12771;DHT22;6449;47.666;9.160;2023-06-14T10:10:09;24.80;90.40
12771;DHT22;6449;47.666;9.160;2023-06-14T10:15:05;25.10;89.00
12771;DHT22;6449;47.666;9.160;2023-06-14T10:20:14;25.20;87.20
12771;DHT22;6449;47.666;9.160;2023-06-14T10:25:26;25.20;86.10
12771;DHT22;6449;47.666;9.160;2023-06-14T10:30:26;24.90;86.10
12771;DHT22;6449;47.666;9.160;2023-06-14T10:35:19;24.90;86.60
12771;DHT22;6449;47.666;9.160;2023-06-14T10:40:30;25.10;87.70
12771;DHT22;6449;47.666;9.160;2023-06-14T10:45:23;25.20;86.10
12771;DHT22;6449;47.666;9.160;2023-06-14T10:50:27;25.30;85.80
12771;DHT22;6449;47.666;9.160;2023-06-14T10:55:22;25.50;85.80
12771;DHT22;6449;47.666;9.160;2023-06-14T11:00:16;25.40;90.00
12771;DHT22;6449;47.666;9.160;2023-06-14T11:05:15;25.50;87.50
12771;DHT22;6449;47.666;9.160;2023-06-14T11:10:26;25.80;86.50
12771;DHT22;6449;47.666;9.160;2023-06-14T11:15:29;25.80;86.50
12771;DHT22;6449;47.666;9.160;2023-06-14T11:20:26;25.70;85.40
12771;DHT22;6449;47.666;9.160;2023-06-14T11:25:20;25.80;84.80
12771;DHT22;6449;47.666;9.160;2023-06-14T11:30:14;25.90;85.90
12771;DHT22;6449;47.666;9.160;2023-06-14T11:35:08;25.80;88.40
12771;DHT22;6449;47.666;9.160;2023-06-14T11:40:04;25.90;84.70
12771;DHT22;6449;47.666;9.160;2023-06-14T11:45:02;25.70;87.70
12771;DHT22;6449;47.666;9.160;2023-06-14T11:50:01;26.00;85.50
12771;DHT22;6449;47.666;9.160;2023-06-14T11:54:55;25.90;87.90
12771;DHT22;6449;47.666;9.160;2023-06-14T11:59:51;26.10;87.10
12771;DHT22;6449;47.666;9.160;2023-06-14T12:04:47;26.10;88.20
12771;DHT22;6449;47.666;9.160;2023-06-14T12:09:41;26.10;87.20
12771;DHT22;6449;47.666;9.160;2023-06-14T12:14:35;26.00;86.00
12771;DHT22;6449;47.666;9.160;2023-06-14T12:19:30;26.00;85.20
12771;DHT22;6449;47.666;9.160;2023-06-14T12:24:28;25.90;88.60
12771;DHT22;6449;47.666;9.160;2023-06-14T12:29:22;26.00;87.60
12771;DHT22;6449;47.666;9.160;2023-06-14T12:34:15;25.70;84.50
12771;DHT22;6449;47.666;9.160;2023-06-14T12:39:10;25.50;87.20
12771;DHT22;6449;47.666;9.160;2023-06-14T12:44:04;25.50;86.50
12771;DHT22;6449;47.666;9.160;2023-06-14T12:48:57;25.50;86.80
12771;DHT22;6449;47.666;9.160;2023-06-14T12:53:51;25.60;86.60
12771;DHT22;6449;47.666;9.160;2023-06-14T12:58:45;25.60;87.30
12771;DHT22;6449;47.666;9.160;2023-06-14T13:03:39;25.40;86.80
12771;DHT22;6449;47.666;9.160;2023-06-14T13:08:32;25.40;91.70
12771;DHT22;6449;47.666;9.160;2023-06-14T13:13:25;25.30;84.80
12771;DHT22;6449;47.666;9.160;2023-06-14T13:18:20;25.20;85.60
12771;DHT22;6449;47.666;9.160;2023-06-14T13:23:16;25.30;86.40
12771;DHT22;6449;47.666;9.160;2023-06-14T13:28:10;25.30;87.30
12771;DHT22;6449;47.666;9.160;2023-06-14T13:33:03;25.30;87.40
12771;DHT22;6449;47.666;9.160;2023-06-14T13:37:58;25.30;87.40
12771;DHT22;6449;47.666;9.160;2023-06-14T13:42:51;25.30;86.90
12771;DHT22;6449;47.666;9.160;2023-06-14T13:47:45;25.30;87.00
12771;DHT22;6449;47.666;9.160;2023-06-14T13:52:40;25.40;87.90
12771;DHT22;6449;47.666;9.160;2023-06-14T13:57:35;25.30;90.60
12771;DHT22;6449;47.666;9.160;2023-06-14T14:02:28;25.50;89.10
12771;DHT22;6449;47.666;9.160;2023-06-14T14:07:22;25.30;87.90
12771;DHT22;6449;47.666;9.160;2023-06-14T14:12:15;25.10;90.50
12771;DHT22;6449;47.666;9.160;2023-06-14T14:17:10;25.20;89.60
12771;DHT22;6449;47.666;9.160;2023-06-14T14:22:04;25.30;88.70
12771;DHT22;6449;47.666;9.160;2023-06-14T14:26:58;25.20;91.50
12771;DHT22;6449;47.666;9.160;2023-06-14T14:31:52;25.10;90.40
12771;DHT22;6449;47.666;9.160;2023-06-14T14:36:47;25.10;89.20
12771;DHT22;6449;47.666;9.160;2023-06-14T14:41:40;25.10;89.50
12771;DHT22;6449;47.666;9.160;2023-06-14T14:46:34;25.10;90.70
12771;DHT22;6449;47.666;9.160;2023-06-14T14:51:27;25.10;89.50
12771;DHT22;6449;47.666;9.160;2023-06-14T14:56:22;25.10;90.70
12771;DHT22;6449;47.666;9.160;2023-06-14T15:01:17;25.00;87.60
12771;DHT22;6449;47.666;9.160;2023-06-14T15:06:10;25.00;88.80
12771;DHT22;6449;47.666;9.160;2023-06-14T15:11:04;24.90;87.70
12771;DHT22;6449;47.666;9.160;2023-06-14T15:15:59;25.00;89.10
12771;DHT22;6449;47.666;9.160;2023-06-14T15:20:53;24.90;90.50
12771;DHT22;6449;47.666;9.160;2023-06-14T15:25:47;25.00;87.60
12771;DHT22;6449;47.666;9.160;2023-06-14T15:30:40;24.90;88.40
12771;DHT22;6449;47.666;9.160;2023-06-14T15:35:35;24.90;89.70
12771;DHT22;6449;47.666;9.160;2023-06-14T15:40:32;24.90;87.90
12771;DHT22;6449;47.666;9.160;2023-06-14T15:45:25;25.00;86.90
12771;DHT22;6449;47.666;9.160;2023-06-14T15:50:19;24.90;85.60
12771;DHT22;6449;47.666;9.160;2023-06-14T15:55:14;24.90;88.40
12771;DHT22;6449;47.666;9.160;2023-06-14T16:00:08;24.90;89.40
12771;DHT22;6449;47.666;9.160;2023-06-14T16:05:02;24.90;87.30
12771;DHT22;6449;47.666;9.160;2023-06-14T16:09:56;24.90;88.70
12771;DHT22;6449;47.666;9.160;2023-06-14T16:14:52;24.70;88.80
12771;DHT22;6449;47.666;9.160;2023-06-14T16:19:46;24.70;87.20
12771;DHT22;6449;47.666;9.160;2023-06-14T16:24:39;24.60;89.30
12771;DHT22;6449;47.666;9.160;2023-06-14T16:29:33;24.60;90.60
12771;DHT22;6449;47.666;9.160;2023-06-14T16:34:28;24.50;87.70
12771;DHT22;6449;47.666;9.160;2023-06-14T16:39:22;24.50;89.70
12771;DHT22;6449;47.666;9.160;2023-06-14T16:44:15;24.50;86.40
12771;DHT22;6449;47.666;9.160;2023-06-14T16:49:10;24.50;88.60
12771;DHT22;6449;47.666;9.160;2023-06-14T16:54:07;24.50;87.20
12771;DHT22;6449;47.666;9.160;2023-06-14T16:59:01;24.50;87.10
12771;DHT22;6449;47.666;9.160;2023-06-14T17:03:54;24.50;86.90
12771;DHT22;6449;47.666;9.160;2023-06-14T17:08:48;24.40;86.30
12771;DHT22;6449;47.666;9.160;2023-06-14T17:13:46;24.50;86.00
12771;DHT22;6449;47.666;9.160;2023-06-14T17:18:40;24.40;85.90
12771;DHT22;6449;47.666;9.160;2023-06-14T17:23:33;24.30;89.90
12771;DHT22;6449;47.666;9.160;2023-06-14T17:28:27;24.30;90.00
12771;DHT22;6449;47.666;9.160;2023-06-14T17:33:21;24.20;89.50
12771;DHT22;6449;47.666;9.160;2023-06-14T17:38:15;24.10;89.30
12771;DHT22;6449;47.666;9.160;2023-06-14T17:43:08;24.10;89.50
12771;DHT22;6449;47.666;9.160;2023-06-14T17:48:02;24.00;90.10
12771;DHT22;6449;47.666;9.160;2023-06-14T17:52:56;24.00;89.90
12771;DHT22;6449;47.666;9.160;2023-06-14T17:57:51;23.90;89.60
12771;DHT22;6449;47.666;9.160;2023-06-14T18:02:44;23.90;91.00
12771;DHT22;6449;47.666;9.160;2023-06-14T18:07:40;23.80;90.20
12771;DHT22;6449;47.666;9.160;2023-06-14T18:12:34;23.70;91.60
12771;DHT22;6449;47.666;9.160;2023-06-14T18:17:28;23.70;90.80
12771;DHT22;6449;47.666;9.160;2023-06-14T18:22:22;23.70;90.40
12771;DHT22;6449;47.666;9.160;2023-06-14T18:27:15;23.50;91.30
12771;DHT22;6449;47.666;9.160;2023-06-14T18:32:10;23.40;90.90
12771;DHT22;6449;47.666;9.160;2023-06-14T18:37:04;23.40;91.10
12771;DHT22;6449;47.666;9.160;2023-06-14T18:41:57;23.40;90.90
12771;DHT22;6449;47.666;9.160;2023-06-14T18:46:51;23.30;91.30
12771;DHT22;6449;47.666;9.160;2023-06-14T18:51:46;23.20;91.20
12771;DHT22;6449;47.666;9.160;2023-06-14T18:56:40;23.10;92.30
12771;DHT22;6449;47.666;9.160;2023-06-14T19:01:33;23.00;92.60
12771;DHT22;6449;47.666;9.160;2023-06-14T19:06:26;22.90;92.80
12771;DHT22;6449;47.666;9.160;2023-06-14T19:11:21;22.90;93.40
12771;DHT22;6449;47.666;9.160;2023-06-14T19:16:14;22.80;93.80
12771;DHT22;6449;47.666;9.160;2023-06-14T19:21:08;22.60;93.80
12771;DHT22;6449;47.666;9.160;2023-06-14T19:26:01;22.60;93.70
12771;DHT22;6449;47.666;9.160;2023-06-14T19:30:56;22.40;94.10
12771;DHT22;6449;47.666;9.160;2023-06-14T19:35:49;22.20;95.10
12771;DHT22;6449;47.666;9.160;2023-06-14T19:40:43;22.10;95.50
12771;DHT22;6449;47.666;9.160;2023-06-14T19:45:37;21.80;95.90
12771;DHT22;6449;47.666;9.160;2023-06-14T19:50:32;21.70;96.10
12771;DHT22;6449;47.666;9.160;2023-06-14T19:55:25;21.80;96.10
12771;DHT22;6449;47.666;9.160;2023-06-14T20:00:19;21.70;96.50
12771;DHT22;6449;47.666;9.160;2023-06-14T20:05:13;21.70;95.90
12771;DHT22;6449;47.666;9.160;2023-06-14T20:10:09;21.70;96.00
12771;DHT22;6449;47.666;9.160;2023-06-14T20:15:03;21.70;95.60
12771;DHT22;6449;47.666;9.160;2023-06-14T20:19:57;21.60;96.20
12771;DHT22;6449;47.666;9.160;2023-06-14T20:24:50;21.60;96.80
12771;DHT22;6449;47.666;9.160;2023-06-14T20:29:45;21.50;96.50
12771;DHT22;6449;47.666;9.160;2023-06-14T20:34:38;21.30;96.10
12771;DHT22;6449;47.666;9.160;2023-06-14T20:39:32;21.00;97.10
12771;DHT22;6449;47.666;9.160;2023-06-14T20:44:25;20.90;97.10
12771;DHT22;6449;47.666;9.160;2023-06-14T20:49:23;20.90;97.30
12771;DHT22;6449;47.666;9.160;2023-06-14T20:54:19;20.80;97.30
12771;DHT22;6449;47.666;9.160;2023-06-14T20:59:12;20.90;96.60
12771;DHT22;6449;47.666;9.160;2023-06-14T21:04:06;20.90;97.30
12771;DHT22;6449;47.666;9.160;2023-06-14T21:09:01;20.90;97.50
12771;DHT22;6449;47.666;9.160;2023-06-14T21:13:54;20.80;97.20
12771;DHT22;6449;47.666;9.160;2023-06-14T21:18:47;20.90;96.80
12771;DHT22;6449;47.666;9.160;2023-06-14T21:23:41;20.70;97.50
12771;DHT22;6449;47.666;9.160;2023-06-14T21:28:35;20.50;97.50
12771;DHT22;6449;47.666;9.160;2023-06-14T21:33:29;20.50;97.60
12771;DHT22;6449;47.666;9.160;2023-06-14T21:38:22;20.50;98.00
12771;DHT22;6449;47.666;9.160;2023-06-14T21:43:15;20.50;97.60
12771;DHT22;6449;47.666;9.160;2023-06-14T21:48:10;20.50;97.90
12771;DHT22;6449;47.666;9.160;2023-06-14T21:53:04;20.60;97.20
12771;DHT22;6449;47.666;9.160;2023-06-14T21:57:57;20.50;97.40
12771;DHT22;6449;47.666;9.160;2023-06-14T22:02:51;20.40;97.80
12771;DHT22;6449;47.666;9.160;2023-06-14T22:07:46;20.40;98.10
12771;DHT22;6449;47.666;9.160;2023-06-14T22:12:40;20.10;98.60
12771;DHT22;6449;47.666;9.160;2023-06-14T22:17:33;20.00;98.50
12771;DHT22;6449;47.666;9.160;2023-06-14T22:22:27;20.10;98.70
12771;DHT22;6449;47.666;9.160;2023-06-14T22:27:23;20.00;98.30
12771;DHT22;6449;47.666;9.160;2023-06-14T22:32:18;19.90;98.60
12771;DHT22;6449;47.666;9.160;2023-06-14T22:37:12;19.90;99.00
12771;DHT22;6449;47.666;9.160;2023-06-14T22:42:07;19.60;98.90
12771;DHT22;6449;47.666;9.160;2023-06-14T22:47:02;19.40;99.30
12771;DHT22;6449;47.666;9.160;2023-06-14T22:52:00;19.20;99.50
12771;DHT22;6449;47.666;9.160;2023-06-14T22:56:56;19.10;99.90
12771;DHT22;6449;47.666;9.160;2023-06-14T23:01:50;19.10;99.90
12771;DHT22;6449;47.666;9.160;2023-06-14T23:06:46;19.20;99.70
12771;DHT22;6449;47.666;9.160;2023-06-14T23:11:40;19.10;99.90
12771;DHT22;6449;47.666;9.160;2023-06-14T23:16:35;19.00;99.90
12771;DHT22;6449;47.666;9.160;2023-06-14T23:21:28;18.90;99.90
12771;DHT22;6449;47.666;9.160;2023-06-14T23:26:24;18.70;99.90
12771;DHT22;6449;47.666;9.160;2023-06-14T23:31:20;18.60;99.90
12771;DHT22;6449;47.666;9.160;2023-06-14T23:36:15;19.00;99.90
12771;DHT22;6449;47.666;9.160;2023-06-14T23:41:09;18.60;99.90
12771;DHT22;6449;47.666;9.160;2023-06-14T23:46:04;18.40;99.90
12771;DHT22;6449;47.666;9.160;2023-06-14T23:50:57;18.00;99.90
12771;DHT22;6449;47.666;9.160;2023-06-14T23:55:50;17.90;99.90
